Time;durP1;ratioP1;P1;durP2;ratioP2;P2;SDS_P1;SDS_P2;PMS_P1;PMS_P2;Temp;Humidity;BMP_temperature;BMP_pressure;BME280_temperature;BME280_humidity;BME280_pressure;Samples;Min_cycle;Max_cycle;Signal;HPM_P1;HPM_P2
2022/05/05 00:02:09;;;;;;;9.25;4.03;;;8.60;99.40;;;;;;4990454;28;20050;-88
2022/05/05 00:04:35;;;;;;;9.90;3.83;;;8.60;99.30;;;;;;4974373;28;20038;-88
2022/05/05 00:07:02;;;;;;;10.40;3.88;;;8.60;99.50;;;;;;4990191;28;20042;-88
2022/05/05 00:09:28;;;;;;;9.40;3.78;;;8.60;99.60;;;;;;4989599;28;20546;-89
2022/05/05 00:14:40;;;;;;;10.90;3.88;;;8.60;99.70;;;;;;4990732;28;20635;-89
2022/05/05 00:17:07;;;;;;;10.15;4.60;;;8.60;99.60;;;;;;4965840;28;20089;-89
2022/05/05 00:19:34;;;;;;;9.55;3.42;;;8.60;99.80;;;;;;4990545;28;20447;-88
2022/05/05 00:22:01;;;;;;;11.52;4.40;;;8.50;99.90;;;;;;4986978;28;20042;-89
2022/05/05 00:24:26;;;;;;;9.40;3.63;;;8.50;99.90;;;;;;4984357;28;20046;-88
2022/05/05 00:26:52;;;;;;;13.32;3.92;;;8.50;99.90;;;;;;4974355;28;20035;-88
2022/05/05 00:29:18;;;;;;;10.82;4.35;;;8.40;99.90;;;;;;4989533;28;20065;-88
2022/05/05 00:31:45;;;;;;;11.13;4.15;;;8.50;99.90;;;;;;4990313;28;20557;-88
2022/05/05 00:34:10;;;;;;;9.23;3.90;;;8.50;99.90;;;;;;4990212;28;20042;-88
2022/05/05 00:36:36;;;;;;;11.60;4.13;;;8.50;99.90;;;;;;4978077;28;20416;-88
2022/05/05 00:39:03;;;;;;;9.57;4.32;;;8.40;99.90;;;;;;4971564;28;20043;-88
2022/05/05 00:41:36;;;;;;;10.90;5.10;;;8.40;99.90;;;;;;4977297;28;20034;-89
2022/05/05 00:44:04;;;;;;;9.60;4.07;;;8.40;99.90;;;;;;4989963;28;20046;-88
2022/05/05 00:46:30;;;;;;;9.20;4.95;;;8.40;99.90;;;;;;4990205;28;20121;-89
2022/05/05 00:48:56;;;;;;;12.52;4.55;;;8.40;99.90;;;;;;4973450;28;20104;-88
2022/05/05 00:51:22;;;;;;;11.57;4.70;;;8.30;99.90;;;;;;4973772;28;20563;-88
2022/05/05 00:53:47;;;;;;;10.93;4.25;;;8.30;99.90;;;;;;4990252;28;20042;-88
2022/05/05 00:56:14;;;;;;;9.65;4.35;;;8.30;99.90;;;;;;4989786;28;20038;-88
2022/05/05 00:58:43;;;;;;;10.25;4.43;;;8.30;99.90;;;;;;4974376;28;20129;-88
2022/05/05 01:01:09;;;;;;;12.27;4.78;;;8.30;99.90;;;;;;4963839;28;20034;-88
2022/05/05 01:03:36;;;;;;;13.85;4.97;;;8.20;99.90;;;;;;4970741;28;20064;-88
2022/05/05 01:06:04;;;;;;;11.27;4.80;;;8.20;99.90;;;;;;4971089;28;20101;-88
2022/05/05 01:08:29;;;;;;;12.90;4.72;;;8.20;99.90;;;;;;4953849;28;20043;-88
2022/05/05 01:10:55;;;;;;;10.93;5.05;;;8.10;99.90;;;;;;4954345;28;20125;-88
2022/05/05 01:13:21;;;;;;;9.50;4.32;;;8.10;99.90;;;;;;4970991;28;20043;-88
2022/05/05 01:15:47;;;;;;;14.45;5.45;;;8.00;99.90;;;;;;4978170;28;20384;-88
2022/05/05 01:18:12;;;;;;;12.30;4.82;;;8.00;99.90;;;;;;4990596;28;20045;-88
2022/05/05 01:20:46;;;;;;;11.57;5.25;;;8.00;99.90;;;;;;4964986;28;20101;-88
2022/05/05 01:23:13;;;;;;;11.98;3.92;;;7.90;99.90;;;;;;4990337;28;20038;-88
2022/05/05 01:28:22;;;;;;;10.82;5.00;;;7.90;99.90;;;;;;4989146;28;20129;-88
2022/05/05 01:30:48;;;;;;;12.02;4.50;;;7.90;99.90;;;;;;4989855;28;20129;-88
2022/05/05 01:33:22;;;;;;;10.40;5.05;;;7.90;99.90;;;;;;4967476;28;20055;-88
2022/05/05 01:35:53;;;;;;;11.73;4.40;;;7.80;99.90;;;;;;4970009;28;20493;-88
2022/05/05 01:38:24;;;;;;;13.00;5.60;;;7.80;99.90;;;;;;4962386;28;20133;-88
2022/05/05 01:40:50;;;;;;;11.48;4.78;;;7.80;99.90;;;;;;4971617;28;20520;-88
2022/05/05 01:43:17;;;;;;;12.70;4.90;;;7.80;99.90;;;;;;4958209;28;20068;-88
2022/05/05 01:45:43;;;;;;;10.05;5.18;;;7.70;99.90;;;;;;4965865;28;20057;-88
2022/05/05 01:48:09;;;;;;;10.15;4.47;;;7.70;99.90;;;;;;4973684;28;20527;-88
2022/05/05 01:50:35;;;;;;;12.00;4.50;;;7.70;99.90;;;;;;4957361;28;20042;-88
2022/05/05 01:53:01;;;;;;;10.70;4.13;;;7.70;99.90;;;;;;4990737;28;20045;-88
2022/05/05 01:55:27;;;;;;;10.73;4.30;;;7.70;99.90;;;;;;4976854;28;20482;-89
2022/05/05 01:57:54;;;;;;;9.40;4.43;;;7.60;99.90;;;;;;4993269;28;20451;-88
2022/05/05 02:00:20;;;;;;;10.80;4.57;;;7.60;99.90;;;;;;4993523;28;20074;-89
2022/05/05 02:02:46;;;;;;;13.10;5.30;;;7.60;99.90;;;;;;4993377;28;20077;-89
2022/05/05 02:05:13;;;;;;;11.07;4.78;;;7.60;99.90;;;;;;4981431;28;20034;-88
2022/05/05 02:07:39;;;;;;;12.80;4.97;;;7.50;99.90;;;;;;4957780;28;20130;-88
2022/05/05 02:10:06;;;;;;;10.07;4.60;;;7.50;99.90;;;;;;4986802;28;20046;-88
2022/05/05 02:12:35;;;;;;;10.82;4.68;;;7.40;99.90;;;;;;4976949;28;20402;-88
2022/05/05 02:15:00;;;;;;;11.70;4.55;;;7.40;99.90;;;;;;4992713;28;20093;-88
2022/05/05 02:17:26;;;;;;;11.15;4.38;;;7.40;99.90;;;;;;4991975;28;20045;-88
2022/05/05 02:19:51;;;;;;;12.02;3.97;;;7.40;99.90;;;;;;4993220;28;20035;-89
2022/05/05 02:22:17;;;;;;;12.95;6.03;;;7.40;99.90;;;;;;4992546;28;20061;-89
2022/05/05 02:24:43;;;;;;;8.93;4.22;;;7.40;99.90;;;;;;4992580;28;20054;-88
2022/05/05 02:27:08;;;;;;;10.88;4.57;;;7.30;99.90;;;;;;4992761;28;20125;-88
2022/05/05 02:29:34;;;;;;;10.35;5.00;;;7.30;99.90;;;;;;4991775;28;20069;-88
2022/05/05 02:32:00;;;;;;;14.45;4.90;;;7.20;99.90;;;;;;4993881;28;20049;-88
2022/05/05 02:34:26;;;;;;;10.00;5.13;;;7.20;99.90;;;;;;4992008;28;20423;-88
2022/05/05 02:39:35;;;;;;;10.18;4.60;;;7.10;99.90;;;;;;4992467;28;20054;-88
2022/05/05 02:42:01;;;;;;;12.10;5.10;;;7.10;99.90;;;;;;4976368;28;20480;-88
2022/05/05 02:44:26;;;;;;;11.00;5.57;;;7.00;99.90;;;;;;4992344;28;20053;-87
2022/05/05 02:46:52;;;;;;;12.40;4.63;;;7.10;99.90;;;;;;4988707;28;20057;-88
2022/05/05 02:49:19;;;;;;;12.85;5.93;;;7.00;99.90;;;;;;4972949;28;20401;-88
2022/05/05 02:51:45;;;;;;;10.82;5.07;;;7.00;99.90;;;;;;4972166;28;20047;-87
2022/05/05 02:56:55;;;;;;;8.77;4.25;;;7.00;99.90;;;;;;4992076;28;20089;-87
2022/05/05 02:59:21;;;;;;;11.95;4.47;;;6.90;99.90;;;;;;4990800;28;20066;-88
2022/05/05 03:01:46;;;;;;;11.63;4.88;;;6.90;99.90;;;;;;4991508;28;20053;-87
2022/05/05 03:04:12;;;;;;;10.35;4.72;;;6.90;99.90;;;;;;4988656;28;20039;-88
2022/05/05 03:06:37;;;;;;;11.73;5.18;;;6.80;99.90;;;;;;4972526;28;20077;-88
2022/05/05 03:09:03;;;;;;;10.55;5.18;;;6.80;99.90;;;;;;4972241;28;20133;-88
2022/05/05 03:11:29;;;;;;;10.52;4.90;;;6.80;99.90;;;;;;4971945;28;20058;-88
2022/05/05 03:13:54;;;;;;;9.13;4.57;;;6.80;99.90;;;;;;4956596;28;20501;-88
2022/05/05 03:16:20;;;;;;;8.90;4.43;;;6.70;99.90;;;;;;4976289;28;20650;-88
2022/05/05 03:18:46;;;;;;;10.30;4.80;;;6.70;99.90;;;;;;4991289;28;20045;-88
2022/05/05 03:21:11;;;;;;;13.02;5.13;;;6.70;99.90;;;;;;4991951;28;20092;-88
2022/05/05 03:23:37;;;;;;;13.52;5.93;;;6.70;99.90;;;;;;4992048;28;20048;-88
2022/05/05 03:26:02;;;;;;;12.38;6.20;;;6.70;99.90;;;;;;4992097;28;20181;-88
2022/05/05 03:28:28;;;;;;;14.63;5.93;;;6.70;99.90;;;;;;4975410;28;20045;-88
2022/05/05 03:30:53;;;;;;;11.88;6.03;;;6.60;99.90;;;;;;4990832;28;20046;-89
2022/05/05 03:33:19;;;;;;;13.05;6.32;;;6.70;99.90;;;;;;4975515;28;20411;-88
2022/05/05 03:35:45;;;;;;;14.73;6.60;;;6.70;99.90;;;;;;4990842;28;20122;-88
2022/05/05 03:38:10;;;;;;;12.73;6.03;;;6.70;99.90;;;;;;4975777;28;20085;-89
2022/05/05 03:40:36;;;;;;;11.27;6.28;;;6.70;99.90;;;;;;4991698;28;20050;-88
2022/05/05 03:43:02;;;;;;;12.77;6.45;;;6.60;99.90;;;;;;4963900;28;20537;-89
2022/05/05 03:45:27;;;;;;;12.75;5.95;;;6.70;99.90;;;;;;4972401;28;20130;-88
2022/05/05 03:47:53;;;;;;;12.48;6.40;;;6.60;99.90;;;;;;4955248;28;20144;-88
2022/05/05 03:50:18;;;;;;;15.05;6.43;;;6.70;99.90;;;;;;4984746;28;20041;-89
2022/05/05 03:52:44;;;;;;;13.68;6.35;;;6.70;99.90;;;;;;4991133;28;20610;-88
2022/05/05 03:55:09;;;;;;;16.33;7.75;;;6.60;99.90;;;;;;4977655;28;20035;-88
2022/05/05 03:57:35;;;;;;;16.23;6.63;;;6.70;99.90;;;;;;4955794;28;20461;-88
2022/05/05 04:00:01;;;;;;;14.57;6.80;;;6.60;99.90;;;;;;4979879;28;20038;-88
2022/05/05 04:02:26;;;;;;;12.48;6.25;;;6.60;99.90;;;;;;4972000;28;20069;-88
2022/05/05 04:04:52;;;;;;;13.15;5.72;;;6.60;99.90;;;;;;4970705;28;20042;-88
2022/05/05 04:07:17;;;;;;;8.93;4.82;;;6.60;99.90;;;;;;4986347;28;20088;-88
2022/05/05 04:09:43;;;;;;;13.75;5.75;;;6.60;99.90;;;;;;4974440;28;20152;-88
2022/05/05 04:12:09;;;;;;;18.85;6.47;;;6.60;99.90;;;;;;4974691;28;20045;-88
2022/05/05 04:14:34;;;;;;;22.73;6.07;;;6.50;99.90;;;;;;4991091;28;20038;-89
2022/05/05 04:17:01;;;;;;;18.35;5.75;;;6.50;99.90;;;;;;4990653;28;20180;-88
2022/05/05 04:19:27;;;;;;;20.35;5.43;;;6.40;99.90;;;;;;4974848;28;20035;-88
2022/05/05 04:21:52;;;;;;;16.58;4.80;;;6.40;99.90;;;;;;4989257;28;20069;-87
2022/05/05 04:24:18;;;;;;;19.85;5.15;;;6.40;99.90;;;;;;4995524;28;20474;-89
2022/05/05 04:26:44;;;;;;;15.77;5.53;;;6.40;99.90;;;;;;4997656;28;20112;-89
2022/05/05 04:29:10;;;;;;;17.85;5.53;;;6.40;99.90;;;;;;4976747;28;20042;-89
2022/05/05 04:31:36;;;;;;;12.27;5.28;;;6.40;99.90;;;;;;4992329;28;20656;-89
2022/05/05 04:34:04;;;;;;;17.25;5.90;;;6.40;99.90;;;;;;5003443;28;20026;-88
2022/05/05 04:36:50;;;;;;;16.13;6.13;;;6.40;99.90;;;;;;4964345;28;20039;-88
2022/05/05 04:39:15;;;;;;;16.42;5.85;;;6.50;99.90;;;;;;4972535;28;20042;-88
2022/05/05 04:41:41;;;;;;;15.48;5.82;;;6.50;99.90;;;;;;4983764;28;20407;-89
2022/05/05 04:44:06;;;;;;;12.38;4.95;;;6.50;99.90;;;;;;4991097;28;20466;-88
2022/05/05 04:46:32;;;;;;;11.63;4.40;;;6.50;99.90;;;;;;4990568;28;20576;-88
2022/05/05 04:48:58;;;;;;;9.23;3.75;;;6.60;99.90;;;;;;4973876;28;20056;-88
2022/05/05 04:51:24;;;;;;;10.38;4.10;;;6.60;99.90;;;;;;4990013;28;20416;-89
2022/05/05 04:53:49;;;;;;;10.77;4.88;;;6.60;99.90;;;;;;4983709;28;20035;-88
2022/05/05 04:56:15;;;;;;;13.18;5.20;;;6.60;99.90;;;;;;4954864;28;20129;-88
2022/05/05 04:58:41;;;;;;;8.85;4.10;;;6.70;99.90;;;;;;4971008;28;20125;-89
2022/05/05 05:01:06;;;;;;;10.75;4.75;;;6.70;99.90;;;;;;4979409;28;20034;-89
2022/05/05 05:03:39;;;;;;;11.18;4.45;;;6.80;99.90;;;;;;4971375;28;20038;-89
2022/05/05 05:06:08;;;;;;;15.45;5.13;;;6.80;99.90;;;;;;4956729;28;20038;-89
2022/05/05 05:08:34;;;;;;;9.23;5.07;;;6.90;99.90;;;;;;4970178;28;20043;-89
2022/05/05 05:11:00;;;;;;;11.95;6.18;;;6.90;99.90;;;;;;4970009;28;20047;-88
2022/05/05 05:13:26;;;;;;;14.25;6.65;;;6.90;99.90;;;;;;4989736;28;20046;-89
2022/05/05 05:15:52;;;;;;;11.15;6.07;;;7.00;99.90;;;;;;4991344;28;20049;-89
2022/05/05 05:18:17;;;;;;;12.23;6.82;;;7.00;99.90;;;;;;4976865;28;20129;-88
2022/05/05 05:20:43;;;;;;;12.43;6.50;;;7.00;99.90;;;;;;4994380;28;20150;-89
2022/05/05 05:23:09;;;;;;;14.55;7.43;;;7.10;99.90;;;;;;4972326;28;20035;-89
2022/05/05 05:25:35;;;;;;;13.80;6.95;;;7.20;99.90;;;;;;4974222;28;20039;-89
2022/05/05 05:28:01;;;;;;;15.13;7.22;;;7.30;99.90;;;;;;4974513;28;20047;-89
2022/05/05 05:30:27;;;;;;;12.45;6.53;;;7.30;99.90;;;;;;4979669;28;20125;-89
2022/05/05 05:32:52;;;;;;;14.73;8.15;;;7.40;99.90;;;;;;4993867;28;20046;-88
2022/05/05 05:35:18;;;;;;;12.43;7.00;;;7.50;99.90;;;;;;4987729;28;20412;-88
2022/05/05 05:37:43;;;;;;;12.48;7.25;;;7.50;99.90;;;;;;4974060;28;20046;-88
2022/05/05 05:40:10;;;;;;;14.70;8.27;;;7.60;99.90;;;;;;4958449;28;20043;-88
2022/05/05 05:42:35;;;;;;;17.85;8.45;;;7.60;99.90;;;;;;4988555;28;20038;-88
2022/05/05 05:45:01;;;;;;;16.60;8.95;;;7.70;99.90;;;;;;4994271;28;20403;-88
2022/05/05 05:47:26;;;;;;;19.02;9.77;;;7.80;99.90;;;;;;4977414;28;20038;-87
2022/05/05 05:49:52;;;;;;;19.13;11.20;;;7.90;99.90;;;;;;4973754;28;20046;-88
2022/05/05 05:52:17;;;;;;;16.23;10.18;;;7.90;99.90;;;;;;4973720;28;20046;-88
2022/05/05 05:54:43;;;;;;;19.88;11.48;;;8.00;99.90;;;;;;4957523;28;20121;-89
2022/05/05 05:57:09;;;;;;;18.73;11.40;;;8.10;99.90;;;;;;4973836;28;20102;-89
2022/05/05 05:59:34;;;;;;;23.40;11.57;;;8.20;99.90;;;;;;4986383;28;20054;-89
2022/05/05 06:04:44;;;;;;;22.02;11.90;;;8.40;99.90;;;;;;4990444;28;20684;-89
2022/05/05 06:07:10;;;;;;;20.83;11.23;;;8.50;99.90;;;;;;4988100;28;20038;-89
2022/05/05 06:09:35;;;;;;;22.33;12.00;;;8.70;99.90;;;;;;4992766;28;20041;-89
2022/05/05 06:12:03;;;;;;;18.63;11.05;;;8.80;99.90;;;;;;4983252;28;20435;-89
2022/05/05 06:14:30;;;;;;;20.90;12.57;;;8.90;99.90;;;;;;4976991;28;20046;-89
2022/05/05 06:16:55;;;;;;;18.90;11.10;;;9.00;99.90;;;;;;4992925;28;20046;-88
2022/05/05 06:19:21;;;;;;;19.70;11.40;;;9.10;99.90;;;;;;4982769;28;20569;-89
2022/05/05 06:21:46;;;;;;;19.25;9.93;;;9.30;99.90;;;;;;4973868;28;20045;-90
2022/05/05 06:24:12;;;;;;;16.13;11.05;;;9.40;99.90;;;;;;4957600;28;20035;-90
2022/05/05 06:26:38;;;;;;;19.75;11.35;;;9.50;99.90;;;;;;4973162;28;20043;-89
2022/05/05 06:29:03;;;;;;;19.83;11.52;;;9.60;99.90;;;;;;4956951;28;20134;-89
2022/05/05 06:31:29;;;;;;;17.45;10.73;;;9.70;99.90;;;;;;4980925;28;20126;-90
2022/05/05 06:33:54;;;;;;;21.65;10.50;;;9.90;99.90;;;;;;4971799;28;20411;-89
2022/05/05 06:36:20;;;;;;;17.77;10.05;;;10.00;99.90;;;;;;4973777;28;20478;-90
2022/05/05 06:38:46;;;;;;;18.77;9.95;;;10.10;99.90;;;;;;4989646;28;20042;-89
2022/05/05 06:41:12;;;;;;;20.13;10.23;;;10.20;99.90;;;;;;4982081;28;20042;-89
2022/05/05 06:43:38;;;;;;;17.70;10.52;;;10.30;99.90;;;;;;4992928;28;20123;-89
2022/05/05 06:46:03;;;;;;;18.25;10.40;;;10.40;99.90;;;;;;4976601;28;20122;-89
2022/05/05 06:48:30;;;;;;;20.00;10.63;;;10.50;99.90;;;;;;4992334;28;20081;-89
2022/05/05 06:50:56;;;;;;;16.75;9.70;;;10.60;99.90;;;;;;4991874;28;20118;-89
2022/05/05 06:53:21;;;;;;;16.23;10.27;;;10.70;99.90;;;;;;4992069;28;20137;-89
2022/05/05 06:55:49;;;;;;;17.08;9.57;;;10.80;99.90;;;;;;4975618;28;20504;-89
2022/05/05 06:58:15;;;;;;;17.83;10.10;;;10.90;99.90;;;;;;4975766;28;20412;-89
2022/05/05 07:03:24;;;;;;;17.58;9.75;;;11.10;99.90;;;;;;4972635;28;20528;-89
2022/05/05 07:05:51;;;;;;;22.80;10.52;;;11.30;99.90;;;;;;4972398;28;20038;-89
2022/05/05 07:08:16;;;;;;;17.90;12.02;;;11.40;99.90;;;;;;4984016;28;20109;-89
2022/05/05 07:10:53;;;;;;;17.20;11.85;;;11.50;99.90;;;;;;4992040;28;20050;-89
2022/05/05 07:13:24;;;;;;;17.40;10.52;;;11.60;99.90;;;;;;4982997;28;20038;-89
2022/05/05 07:15:50;;;;;;;16.20;10.30;;;11.70;99.90;;;;;;4991589;28;20040;-90
2022/05/05 07:18:16;;;;;;;17.95;10.30;;;11.80;99.90;;;;;;4990641;28;20053;-89
2022/05/05 07:20:43;;;;;;;18.25;10.57;;;11.90;99.90;;;;;;4992015;28;20038;-90
2022/05/05 07:23:12;;;;;;;21.08;10.02;;;12.00;99.90;;;;;;4971160;28;20485;-90
2022/05/05 07:25:41;;;;;;;17.40;8.52;;;12.10;99.90;;;;;;4972591;28;20039;-89
2022/05/05 07:28:07;;;;;;;15.55;9.18;;;12.20;99.90;;;;;;4973266;28;20043;-90
2022/05/05 07:30:33;;;;;;;13.52;7.85;;;12.30;99.90;;;;;;4975045;28;20133;-89
2022/05/05 07:32:59;;;;;;;15.68;8.20;;;12.40;99.90;;;;;;4991019;28;20133;-89
2022/05/05 07:35:25;;;;;;;15.75;7.65;;;12.50;99.90;;;;;;4991617;28;20038;-89
2022/05/05 07:37:51;;;;;;;18.73;8.23;;;12.60;99.90;;;;;;4991610;28;20054;-90
2022/05/05 07:40:16;;;;;;;15.73;7.40;;;12.70;99.90;;;;;;4991111;28;20042;-89
2022/05/05 07:42:42;;;;;;;13.07;6.55;;;12.80;99.90;;;;;;4990182;28;20030;-90
2022/05/05 07:45:08;;;;;;;14.65;7.03;;;12.80;99.90;;;;;;4975625;28;20173;-89
2022/05/05 07:47:34;;;;;;;13.15;6.07;;;12.90;99.80;;;;;;4990876;28;20538;-89
2022/05/05 07:50:01;;;;;;;13.75;6.28;;;13.00;99.50;;;;;;4990708;28;20038;-90
2022/05/05 07:52:26;;;;;;;14.40;6.35;;;13.10;99.30;;;;;;4993642;28;20038;-90
2022/05/05 07:54:53;;;;;;;13.77;6.15;;;13.10;98.30;;;;;;4998345;28;20700;-89
2022/05/05 07:57:20;;;;;;;10.73;5.18;;;13.20;98.80;;;;;;4991412;28;20046;-90
2022/05/05 07:59:47;;;;;;;14.70;6.13;;;13.30;97.90;;;;;;4991090;28;20047;-90
2022/05/05 08:02:16;;;;;;;12.93;5.78;;;13.50;97.60;;;;;;4972117;28;20118;-90
2022/05/05 08:04:43;;;;;;;16.10;5.40;;;13.50;96.90;;;;;;4972439;28;20038;-90
2022/05/05 08:07:09;;;;;;;11.65;5.60;;;13.60;95.50;;;;;;4971799;28;20562;-90
2022/05/05 08:09:35;;;;;;;18.08;6.30;;;13.70;94.80;;;;;;4984678;28;20125;-90
2022/05/05 08:12:00;;;;;;;12.77;5.50;;;13.70;95.50;;;;;;4990495;28;20093;-90
2022/05/05 08:14:26;;;;;;;12.70;5.88;;;13.80;95.10;;;;;;4980295;28;20128;-90
2022/05/05 08:16:52;;;;;;;16.65;6.15;;;13.90;94.40;;;;;;4991902;28;20050;-90
2022/05/05 08:19:20;;;;;;;14.40;6.28;;;14.00;94.90;;;;;;4981629;28;20026;-89
2022/05/05 08:21:46;;;;;;;10.80;5.30;;;14.10;94.30;;;;;;4971607;28;20583;-91
2022/05/05 08:29:41;;;;;;;12.15;5.45;;;14.30;92.20;;;;;;4990220;28;20146;-90
2022/05/05 08:32:07;;;;;;;11.45;6.05;;;14.40;92.70;;;;;;4973499;28;20035;-90
2022/05/05 08:34:32;;;;;;;16.48;7.35;;;14.50;91.80;;;;;;4991054;28;20092;-90
2022/05/05 08:36:58;;;;;;;13.60;6.40;;;14.60;92.40;;;;;;4971003;28;20051;-90
2022/05/05 08:39:23;;;;;;;12.60;6.63;;;14.70;92.50;;;;;;4970845;28;20405;-90
2022/05/05 08:41:49;;;;;;;12.68;6.60;;;14.80;92.20;;;;;;4972946;28;20491;-90
2022/05/05 08:44:14;;;;;;;16.10;7.10;;;14.90;91.00;;;;;;4979105;28;20116;-90
2022/05/05 08:46:40;;;;;;;12.73;6.40;;;14.90;90.40;;;;;;4999720;28;20599;-90
2022/05/05 08:49:07;;;;;;;13.88;8.48;;;15.00;90.00;;;;;;4994946;28;20089;-90
2022/05/05 08:51:44;;;;;;;13.82;6.90;;;15.10;90.70;;;;;;5008922;28;20040;-90
2022/05/05 08:54:16;;;;;;;14.27;6.60;;;15.20;91.10;;;;;;4994577;28;20062;-90
2022/05/05 08:56:51;;;;;;;14.20;6.65;;;15.40;91.30;;;;;;4970698;28;20042;-90
2022/05/05 08:59:18;;;;;;;13.60;6.57;;;15.40;92.10;;;;;;4990115;28;20085;-90
2022/05/05 09:01:44;;;;;;;11.43;6.53;;;15.50;92.10;;;;;;4972419;28;20053;-90
2022/05/05 09:04:10;;;;;;;13.35;6.90;;;15.70;91.60;;;;;;4990439;28;20053;-90
2022/05/05 09:06:51;;;;;;;12.52;6.47;;;15.80;90.20;;;;;;4986192;28;20051;-90
2022/05/05 09:09:33;;;;;;;14.60;6.75;;;15.90;89.10;;;;;;4970630;28;20035;-90
2022/05/05 09:12:13;;;;;;;12.73;7.25;;;16.10;90.30;;;;;;4972335;28;20448;-90
2022/05/05 09:14:50;;;;;;;13.05;6.70;;;16.20;85.50;;;;;;4989707;28;20049;-90
2022/05/05 09:17:20;;;;;;;11.88;5.85;;;16.30;85.00;;;;;;4989838;28;20069;-90
2022/05/05 09:19:51;;;;;;;12.57;6.97;;;16.40;84.90;;;;;;4989301;28;20081;-90
2022/05/05 09:22:18;;;;;;;11.75;6.40;;;16.60;81.10;;;;;;4974203;28;20038;-91
2022/05/05 09:24:51;;;;;;;11.13;7.18;;;16.60;78.40;;;;;;4990104;28;20038;-91
2022/05/05 09:27:24;;;;;;;11.95;6.60;;;16.60;77.20;;;;;;4990261;28;20138;-91
2022/05/05 09:30:03;;;;;;;11.55;6.40;;;16.70;77.40;;;;;;4967640;28;20035;-90
2022/05/05 09:32:37;;;;;;;12.35;6.72;;;16.70;78.60;;;;;;4988822;28;20046;-91
2022/05/05 09:35:15;;;;;;;12.43;6.00;;;16.80;79.10;;;;;;4989974;28;20034;-90
2022/05/05 09:37:45;;;;;;;12.00;7.10;;;16.80;78.80;;;;;;4989143;28;20049;-91
2022/05/05 09:40:12;;;;;;;15.20;8.20;;;17.00;76.50;;;;;;4970820;28;20050;-90
2022/05/05 09:42:43;;;;;;;16.85;7.53;;;17.10;74.70;;;;;;4989544;28;20033;-90
2022/05/05 09:45:32;;;;;;;11.88;6.85;;;17.30;74.10;;;;;;4989675;28;20088;-90
2022/05/05 09:48:02;;;;;;;15.32;7.20;;;17.30;75.30;;;;;;4990087;28;20038;-90
2022/05/05 09:50:30;;;;;;;12.02;7.00;;;17.40;74.90;;;;;;4978052;28;20042;-90
2022/05/05 09:58:39;;;;;;;12.02;6.82;;;17.50;70.30;;;;;;4987387;28;20042;-89
2022/05/05 10:04:02;;;;;;;13.30;7.20;;;17.50;70.80;;;;;;4972407;28;20121;-90
2022/05/05 10:06:31;;;;;;;11.73;6.88;;;17.60;69.50;;;;;;4958424;28;20031;-90
2022/05/05 10:09:19;;;;;;;10.95;6.68;;;17.70;69.70;;;;;;4976544;28;20042;-91
2022/05/05 10:11:46;;;;;;;12.23;6.63;;;17.80;69.40;;;;;;4992401;28;20212;-90
2022/05/05 10:14:14;;;;;;;9.57;6.32;;;18.00;70.60;;;;;;4979088;28;20113;-90
2022/05/05 10:16:42;;;;;;;13.32;6.93;;;18.20;70.90;;;;;;5003473;28;20034;-91
2022/05/05 10:19:08;;;;;;;10.90;6.43;;;18.40;73.60;;;;;;4984766;28;20082;-90
2022/05/05 10:22:13;;;;;;;12.57;6.30;;;18.50;68.80;;;;;;4973282;28;20043;-90
2022/05/05 10:24:43;;;;;;;11.75;5.97;;;18.60;70.40;;;;;;4918790;29;20051;-90
2022/05/05 10:27:10;;;;;;;12.13;5.95;;;18.70;73.70;;;;;;4905047;29;20048;-90
2022/05/05 10:29:43;;;;;;;12.57;6.57;;;19.00;70.30;;;;;;4905895;29;20130;-90
2022/05/05 10:32:18;;;;;;;11.50;6.03;;;19.20;68.90;;;;;;4920172;29;20055;-91
2022/05/05 10:34:54;;;;;;;11.25;6.38;;;19.40;67.70;;;;;;4936058;29;20047;-90
2022/05/05 10:37:30;;;;;;;13.80;6.80;;;19.50;67.90;;;;;;4935938;29;20050;-91
2022/05/05 10:40:07;;;;;;;11.15;6.25;;;19.70;68.10;;;;;;4919482;29;20600;-90
2022/05/05 10:42:39;;;;;;;11.32;6.03;;;19.90;66.20;;;;;;4936126;29;20434;-91
2022/05/05 10:45:14;;;;;;;10.35;5.70;;;19.90;62.20;;;;;;4902703;29;20106;-91
2022/05/05 10:47:52;;;;;;;10.98;5.90;;;19.80;63.30;;;;;;4901809;29;20186;-90
2022/05/05 10:50:53;;;;;;;11.88;6.97;;;20.00;63.50;;;;;;4917140;29;20572;-91
2022/05/05 10:53:31;;;;;;;11.95;6.15;;;20.10;62.60;;;;;;4917093;29;20047;-91
2022/05/05 10:55:58;;;;;;;8.52;5.10;;;20.30;61.30;;;;;;4926351;29;20082;-90
2022/05/05 10:58:55;;;;;;;11.65;5.72;;;20.50;60.50;;;;;;4952339;29;20137;-90
2022/05/05 11:01:22;;;;;;;14.32;5.35;;;20.70;60.20;;;;;;4984862;28;20047;-91
2022/05/05 11:04:15;;;;;;;12.05;5.28;;;20.90;59.90;;;;;;4988775;28;20046;-91
2022/05/05 11:06:48;;;;;;;12.90;7.20;;;20.90;60.00;;;;;;4976173;28;20031;-90
2022/05/05 11:09:32;;;;;;;;;;;21.10;59.80;;;;;;4973430;28;20043;-90
2022/05/05 11:12:15;;;;;;;10.98;5.03;;;21.20;60.30;;;;;;4970589;28;19925;-91
2022/05/05 11:21:32;;;;;;;10.07;5.45;;;21.60;57.20;;;;;;4933064;29;20520;-91
2022/05/05 11:23:59;;;;;;;10.55;5.28;;;21.50;54.00;;;;;;4990037;28;20057;-92
2022/05/05 11:26:25;;;;;;;9.38;4.90;;;21.50;56.00;;;;;;4989904;28;20136;-91
2022/05/05 11:28:51;;;;;;;10.10;4.95;;;21.60;57.00;;;;;;4983306;28;20057;-91
2022/05/05 11:31:29;;;;;;;10.13;5.57;;;21.70;57.70;;;;;;4991300;28;20412;-91
2022/05/05 11:34:00;;;;;;;13.65;6.95;;;22.10;57.00;;;;;;4990756;28;20047;-91
2022/05/05 11:36:34;;;;;;;11.57;5.50;;;22.30;57.50;;;;;;4975502;28;20038;-91
2022/05/05 11:39:00;;;;;;;10.32;4.70;;;22.50;55.70;;;;;;4991420;28;20431;-91
2022/05/05 11:41:26;;;;;;;9.10;4.82;;;22.70;54.80;;;;;;4980086;28;20031;-91
2022/05/05 11:46:38;;;;;;;9.40;4.95;;;23.00;52.40;;;;;;4973975;28;20042;-91
2022/05/05 11:49:04;;;;;;;11.55;5.15;;;23.00;51.80;;;;;;4989528;28;20042;-91
2022/05/05 11:51:32;;;;;;;10.43;5.22;;;23.10;50.70;;;;;;4974744;28;20046;-91
2022/05/05 11:54:04;;;;;;;11.63;5.28;;;23.20;50.90;;;;;;4990268;28;20455;-91
2022/05/05 11:56:30;;;;;;;10.57;5.80;;;23.30;51.70;;;;;;4990662;28;20056;-90
2022/05/05 12:01:52;;;;;;;10.02;5.50;;;23.20;49.80;;;;;;4970867;28;20082;-91
2022/05/05 12:04:18;;;;;;;10.52;5.32;;;23.10;49.80;;;;;;4955145;28;20461;-91
2022/05/05 12:06:44;;;;;;;10.85;4.90;;;23.10;49.40;;;;;;4972000;28;20045;-90
2022/05/05 12:09:10;;;;;;;11.32;5.45;;;23.10;49.60;;;;;;4959570;28;20038;-90
2022/05/05 12:11:36;;;;;;;9.15;5.35;;;23.10;49.00;;;;;;4989755;28;20061;-91
2022/05/05 12:14:06;;;;;;;11.55;5.18;;;23.10;49.40;;;;;;4973099;28;20332;-91
2022/05/05 12:16:34;;;;;;;10.50;6.18;;;23.10;48.90;;;;;;4981609;28;20577;-91
2022/05/05 12:19:00;;;;;;;11.40;5.45;;;23.10;48.70;;;;;;4974749;28;20042;-91
2022/05/05 12:21:26;;;;;;;10.85;5.82;;;23.10;47.90;;;;;;4981508;28;20041;-90
2022/05/05 12:24:00;;;;;;;11.50;5.68;;;23.20;48.30;;;;;;4971814;28;20106;-90
2022/05/05 12:26:30;;;;;;;13.02;5.50;;;23.30;49.20;;;;;;4983212;28;20038;-91
2022/05/05 12:28:56;;;;;;;12.63;5.82;;;23.40;49.10;;;;;;4999870;28;20100;-91
2022/05/05 12:31:28;;;;;;;10.23;5.55;;;23.50;47.50;;;;;;4999319;28;20408;-91
2022/05/05 12:33:54;;;;;;;10.15;5.50;;;23.50;48.10;;;;;;4973849;28;20135;-91
2022/05/05 12:36:27;;;;;;;9.38;5.43;;;23.50;47.30;;;;;;4987107;28;20035;-91
2022/05/05 12:39:08;;;;;;;9.23;5.30;;;23.60;47.40;;;;;;4968102;28;20035;-91
2022/05/05 12:41:34;;;;;;;10.68;5.45;;;23.50;47.60;;;;;;4982047;28;20101;-91
2022/05/05 12:44:08;;;;;;;13.48;5.72;;;23.40;48.20;;;;;;4988711;28;20035;-90
2022/05/05 12:46:34;;;;;;;11.02;5.07;;;23.30;48.20;;;;;;4968721;28;20488;-91
2022/05/05 12:49:00;;;;;;;11.55;5.85;;;23.30;48.30;;;;;;4974329;28;20085;-90
2022/05/05 12:51:31;;;;;;;10.93;5.50;;;23.30;48.00;;;;;;4970925;28;20073;-91
2022/05/05 12:59:37;;;;;;;12.52;4.78;;;23.50;48.50;;;;;;4970927;28;20493;-91
2022/05/05 13:02:04;;;;;;;11.68;5.47;;;23.80;48.80;;;;;;4973357;28;20586;-91
2022/05/05 13:04:30;;;;;;;10.23;4.40;;;24.10;49.10;;;;;;4990581;28;20042;-91
2022/05/05 13:06:56;;;;;;;10.38;5.57;;;24.40;49.60;;;;;;4990662;28;20049;-91
2022/05/05 13:09:21;;;;;;;9.55;5.03;;;24.70;49.40;;;;;;4982605;28;20043;-91
2022/05/05 13:11:51;;;;;;;10.40;5.25;;;25.00;48.40;;;;;;4970278;28;20045;-91
2022/05/05 13:14:17;;;;;;;10.45;5.30;;;25.20;46.10;;;;;;4975157;28;20187;-91
2022/05/05 13:16:43;;;;;;;10.63;5.20;;;25.10;46.90;;;;;;4990575;28;20665;-91
2022/05/05 13:19:11;;;;;;;11.05;5.60;;;25.10;46.50;;;;;;4989633;28;20046;-91
2022/05/05 13:21:39;;;;;;;10.38;5.38;;;25.10;46.40;;;;;;4977605;28;20089;-91
2022/05/05 13:24:05;;;;;;;9.05;4.80;;;25.10;46.70;;;;;;4954871;28;20522;-91
2022/05/05 13:26:31;;;;;;;8.75;4.82;;;25.20;46.30;;;;;;4958123;28;20460;-91
2022/05/05 13:28:57;;;;;;;10.27;4.78;;;25.30;46.50;;;;;;4989741;28;20507;-91
2022/05/05 13:31:23;;;;;;;10.30;4.95;;;25.30;45.90;;;;;;4989551;28;20526;-91
2022/05/05 13:33:49;;;;;;;9.35;5.25;;;25.40;45.80;;;;;;4989181;28;20113;-91
2022/05/05 13:36:15;;;;;;;10.00;4.95;;;25.40;46.10;;;;;;4972788;28;20041;-91